Skip Navigation LinksHome page > Weather > Current weather Skip Navigation Links

Current Weather

Honolulu Intl, Honolulu

For information only: do not use for flight planning or navigation.
Latest weather
Observation time Sunday, December 4, 2016 9:53 PM HST
Local time Sunday, December 4, 2016 10:25 PM HST
Flight conditions Visual Meteorological Conditions
Winds
Wind speed calm
Visibility 10 mi.
Sky condition
Ceiling 17,000 ft. broken clouds
Cloud layer scattered clouds 2,500 ft.
Cloud layer scattered clouds 7,500 ft.
Cloud layer broken clouds 17,000 ft.
Temperature 70°F
Dewpoint 69°F
Altimeter 29.94 in.Hg
Precipitation
Rain ended 9:18 PM
Precipitation last hour trace
Derived measurements
Relative humidity 97%
Density altitude 1032 ft.
Sea-level pressure 29.93 in.Hg
Remarks
Automated weather observing station with precipitation discriminator.
METAR PHNL 050753Z 00000KT 10SM SCT025 SCT075 BKN170 21/21 A2994 RMK AO2 RAE18 SLP137 P0000 T02110206

Settings

Location code

InnerDrive.Weather 4.0.6144.1 Release CLR 4.0.30319.34209
Copyright ©2015 Inner Drive Technology. All rights reserved. Portions Copyright ©1986-2015 David Braverman.

Find weather

Site navigation


Skip Navigation Links

Place info

Page info

PayPal - The safer, easier way to pay online!

Return home.

Copyright ©2016 Inner Drive Technology. Purveyors of fine, hand-crafted computer software. Page printed 2016-12-05T08:25:15 UTC.